weather station
Area: 11014 km2
The highest point: Tok (865 m.s.l.)
Total stations: 43
Stations online: 39
Stations offline: 4
Current weather
-1°C

Meteorological map - weather stations in Středočeský

. The meteorological maps show weather information from WARIO weather stations

Weather stations Středočeský

 UpdatesNameStatusTemperatureHumidityWind speedWind direction
25.1.2020 13:53Bořanovice-0.9 °C78.3 %0.9 m/s W
25.1.2020 13:53Jílové u Prahy - Borek0.1 °C89.5 %1.1 m/s SW
16.1.2020 12:54Brandýs nad Labem2.9 °C78.6 %0.6 m/s NW
25.1.2020 13:54Rakovník-0.2 °C99.6 %0.0 m/s W
25.1.2020 13:53Králův Dvůr0.9 °C90.4 %0.7 m/s SW
25.1.2020 13:53Chotětov-1.3 °C93.9 %0.0 m/s SW
25.1.2020 13:53Dolní Jirčany-1.6 °C92.5 %1.5 m/s NW
16.1.2020 17:06Holubice0.8 °C92.4 %0.0 m/s S
25.1.2020 13:53Hovorčovice0.0 °C83.8 %0.0 m/s NE
25.1.2020 13:54Sedlčany1.2 °C88.7 %0.0 m/s SE
25.1.2020 13:53Kojetice-1.1 °C92.8 %0.8 m/s N
25.1.2020 13:53Krásná Hora nad Vltavou-0.6 °C100.0 %0.9 m/s S
25.1.2020 13:53Květnice-0.8 °C87.2 %0.0 m/s N
25.1.2020 13:53Libeř0.4 °C96.0 %0.8 m/s W
25.1.2020 13:53Sazená-3.4 °C97.8 %2.2 m/s N
25.1.2020 13:53Mělník-1.0 °C89.3 %0.1 m/s S
25.1.2020 13:54Jince4.4 °C79.9 %1.3 m/s N
25.1.2020 13:53Cetyně-2.5 °C98.2 %2.1 m/s SE
25.1.2020 13:53Olešná0.1 °C89.6 %1.5 m/s W
25.1.2020 13:53Srby-1.3 °C97.0 %1.3 m/s SW
25.1.2020 13:53Kralupy nad Vltavou-1.2 °C90.5 %0.0 m/s NE
25.1.2020 13:54Mrač0.3 °C95.6 %0.0 m/s W
25.1.2020 13:53Velvary-1.6 °C82.0 %1.4 m/s N
25.1.2020 13:53Mladá Boleslav-0.4 °C100.0 %0.0 m/s SE
25.1.2020 13:53Mšecké Žehrovice-2.4 °C100.0 %1.3 m/s SE
25.1.2020 13:53Odolena voda-1.0 °C90.4 %0.0 m/s N
25.1.2020 13:53Orlov1.9 °C85.7 %1.3 m/s W
25.1.2020 13:54Petrovice-0.4 °C97.0 %1.1 m/s S
25.1.2020 13:53Suchodol1.4 °C96.6 %1.3 m/s NE
25.1.2020 13:53Husinec - Řež0.1 °C87.2 %0.0 m/s SE
25.1.2020 13:53Semice-0.2 °C94.4 %0.0 m/s N
23.1.2020 15:15Slaný1.5 °C79.9 %1.3 m/s NE
25.1.2020 13:53Svojetice-2.7 °C100.0 %1.2 m/s SW
25.1.2020 13:53Kosmonosy-2.1 °C86.2 %1.3 m/s SW
25.1.2020 13:53Roztoky-0.2 °C90.7 %0.7 m/s NE
25.1.2020 13:53Toušice-0.6 °C87.6 %0.0 m/s SW
25.1.2020 13:53Třebsko-1.6 °C100.0 %1.5 m/s S
25.1.2020 13:53Srby-1.3 °C100.0 %1.0 m/s S
14.1.2020 12:25Vestec2.9 °C90.4 %1.8 m/s N
25.1.2020 13:54Vrbčany-0.2 °C92.9 %0.9 m/s N
25.1.2020 13:53Všetaty-1.1 °C97.4 %1.4 m/s W
25.1.2020 13:53Zibohlavy-0.8 °C92.9 %0.0 m/s E
25.1.2020 13:53Divišov-2.1 °C91.5 %0.0 m/s NE
Email notifications
Enter your email address to subscribe to notifications about news at warioweather.com. Your email address will not be used for any purpose other than sending these emails and will not be provided to any third party. The subscription can be ended at any time.
All data are only indicative. The portal administrator has no responsibility for potentially incorrect data and related consequences. Publishing or further sharing of content from www.warioweather.com is only allowed with written consent from WANET s.r.o.